Time;durP1;ratioP1;P1;durP2;ratioP2;P2;SDS_P1;SDS_P2;PMS_P1;PMS_P2;Temp;Humidity;BMP_temperature;BMP_pressure;BME280_temperature;BME280_humidity;BME280_pressure;Samples;Min_cycle;Max_cycle;Signal;HPM_P1;HPM_P2
2023/06/07 00:01:09;;;;;;;3.63;3.47;;;;;;;18.26;100.00;-11491.19;6245420;23;20611;-61
2023/06/07 00:03:37;;;;;;;3.47;3.27;;;;;;;18.23;100.00;-10846.03;6244688;23;20160;-61
2023/06/07 00:06:05;;;;;;;6.03;3.87;;;;;;;18.20;100.00;-11490.41;6245409;23;20244;-61
2023/06/07 00:08:32;;;;;;;4.27;3.70;;;;;;;18.17;100.00;-12778.97;6244849;23;20576;-61
2023/06/07 00:10:59;;;;;;;3.10;2.90;;;;;;;18.20;100.00;-13745.78;6245074;23;20488;-62
2023/06/07 00:13:26;;;;;;;3.90;3.67;;;;;;;18.23;100.00;-12457.59;6245374;23;20175;-61
2023/06/07 00:15:53;;;;;;;3.83;2.93;;;;;;;18.05;100.00;-6973.88;6244953;23;20161;-62
2023/06/07 00:18:21;;;;;;;6.93;3.17;;;;;;;18.10;100.00;-4714.41;6244777;23;20164;-62
2023/06/07 00:20:50;;;;;;;3.30;3.03;;;;;;;18.01;100.00;-5037.06;6244602;23;20157;-61
2023/06/07 00:23:18;;;;;;;2.97;2.77;;;;;;;17.88;100.00;-7618.06;6244624;23;20183;-62
2023/06/07 00:25:45;;;;;;;6.53;3.50;;;;;;;17.93;100.00;-7940.94;6244849;23;20165;-61
2023/06/07 00:28:12;;;;;;;6.43;3.93;;;;;;;17.75;100.00;-7617.19;6244447;23;20172;-61
2023/06/07 00:30:39;;;;;;;3.40;3.20;;;;;;;17.82;100.00;-8907.38;6244413;23;20187;-61
2023/06/07 00:33:06;;;;;;;5.77;3.67;;;;;;;17.84;100.00;-9874.56;6244828;23;20161;-62
2023/06/07 00:35:34;;;;;;;4.70;3.83;;;;;;;17.82;100.00;-10196.63;6244668;23;20163;-61
2023/06/07 00:38:01;;;;;;;4.03;3.60;;;;;;;17.71;100.00;-9551.06;6244525;23;20172;-61
2023/06/07 00:40:28;;;;;;;3.63;3.33;;;;;;;17.71;100.00;-8584.16;6244455;23;20153;-61
2023/06/07 00:42:55;;;;;;;4.30;3.93;;;;;;;17.67;100.00;-7939.09;6244804;23;20200;-62
2023/06/07 00:45:22;;;;;;;4.63;4.20;;;;;;;17.61;100.00;-6971.41;6244590;23;20203;-61
2023/06/07 00:47:51;;;;;;;5.67;3.60;;;;;;;17.57;100.00;-6003.69;6244570;23;20259;-61
2023/06/07 00:50:18;;;;;;;4.60;3.40;;;;;;;17.18;100.00;-9545.81;6244744;23;20264;-62
2023/06/07 00:52:46;;;;;;;3.37;3.23;;;;;;;17.14;100.00;-12120.09;6244796;23;20172;-62
2023/06/07 00:55:14;;;;;;;3.90;3.60;;;;;;;17.11;100.00;-11797.97;6244794;23;20251;-61
2023/06/07 00:57:42;;;;;;;3.57;3.27;;;;;;;17.03;100.00;-11153.44;6245101;23;20619;-62
2023/06/07 01:00:13;;;;;;;7.67;3.83;;;;;;;17.01;100.00;-12118.28;6244673;23;20192;-62
2023/06/07 01:02:40;;;;;;;4.20;4.00;;;;;;;16.93;100.00;-12760.28;6244120;23;20252;-62
2023/06/07 01:05:08;;;;;;;4.37;4.10;;;;;;;16.94;100.00;-13082.03;6244798;23;20527;-61
2023/06/07 01:07:35;;;;;;;5.07;4.00;;;;;;;16.76;100.00;-13079.22;6244699;23;20244;-62
2023/06/07 01:10:05;;;;;;;4.23;3.93;;;;;;;16.70;100.00;-12435.50;6244227;23;20200;-61
2023/06/07 01:12:34;;;;;;;9.70;4.30;;;;;;;16.71;100.00;-12114.19;6244534;23;20169;-61
2023/06/07 01:15:01;;;;;;;9.27;4.23;;;;;;;16.40;100.00;-12431.09;6244663;23;20255;-62
2023/06/07 01:17:30;;;;;;;4.60;4.20;;;;;;;16.43;100.00;-16926.97;6244262;23;20219;-61
2023/06/07 01:20:04;;;;;;;5.40;4.33;;;;;;;16.22;100.00;-16280.78;6244152;23;20161;-62
2023/06/07 01:22:34;;;;;;;5.23;4.43;;;;;;;16.04;100.00;-17559.59;6243968;23;20156;-61
2023/06/07 01:25:03;;;;;;;7.20;4.20;;;;;;;16.07;100.00;-16919.06;6244480;23;20608;-61
2023/06/07 01:27:31;;;;;;;8.60;5.13;;;;;;;16.15;100.00;-17562.09;6244464;23;20160;-61
2023/06/07 01:29:59;;;;;;;7.00;4.63;;;;;;;16.21;100.00;-17563.50;6243879;23;20641;-61
2023/06/07 01:32:27;;;;;;;5.67;5.10;;;;;;;16.21;100.00;-17563.59;6244091;23;20153;-61
2023/06/07 01:34:55;;;;;;;8.60;5.83;;;;;;;16.29;100.00;-17565.44;6244253;23;20624;-61
2023/06/07 01:37:25;;;;;;;9.47;5.77;;;;;;;16.35;100.00;-17566.81;6244087;23;20226;-61
2023/06/07 01:39:55;;;;;;;8.13;5.40;;;;;;;16.42;100.00;-16926.63;6243882;23;20160;-61
2023/06/07 01:42:24;;;;;;;7.07;6.40;;;;;;;16.50;100.00;-16607.47;6244044;23;20461;-61
2023/06/07 01:44:53;;;;;;;10.10;6.33;;;;;;;16.56;100.00;-16287.75;6244227;23;20156;-61
2023/06/07 01:47:20;;;;;;;6.73;6.27;;;;;;;16.62;100.00;-16288.91;6244107;23;20156;-61
2023/06/07 01:49:47;;;;;;;15.70;6.70;;;;;;;16.56;100.00;-15645.69;6243699;23;20192;-63
2023/06/07 01:52:14;;;;;;;9.77;6.40;;;;;;;16.47;100.00;-14680.72;6244115;23;20154;-62
2023/06/07 01:54:41;;;;;;;7.10;6.20;;;;;;;16.46;100.00;-14680.63;6244234;23;20153;-61
2023/06/07 01:57:17;;;;;;;13.40;6.53;;;;;;;16.37;100.00;-14999.94;6243841;23;20157;-61
2023/06/07 01:59:58;;;;;;;11.13;7.30;;;;;;;16.46;100.00;-15322.69;6243974;23;20160;-61
2023/06/07 02:02:33;;;;;;;9.90;6.80;;;;;;;16.47;100.00;-15322.88;6244546;23;20569;-61
2023/06/07 02:05:05;;;;;;;8.13;6.07;;;;;;;16.29;100.00;-14035.41;6244358;23;20611;-62
2023/06/07 02:07:45;;;;;;;7.50;6.10;;;;;;;16.23;100.00;-14355.41;6243658;23;20247;-61
2023/06/07 02:10:16;;;;;;;12.00;6.93;;;;;;;16.16;100.00;-15316.97;6243643;23;20219;-62
2023/06/07 02:12:45;;;;;;;18.00;7.27;;;;;;;16.06;100.00;-16918.84;6244175;23;20180;-61
2023/06/07 02:15:13;;;;;;;6.87;6.30;;;;;;;15.91;100.00;-17236.28;6244177;23;20163;-62
2023/06/07 02:17:51;;;;;;;7.20;6.53;;;;;;;15.94;100.00;-16916.34;6244219;23;20157;-61
2023/06/07 02:20:21;;;;;;;11.17;6.80;;;;;;;15.78;100.00;-16912.72;6243728;23;20164;-62
2023/06/07 02:22:48;;;;;;;7.03;6.10;;;;;;;15.71;100.00;-17231.66;6243704;23;20161;-61
2023/06/07 02:25:15;;;;;;;9.33;7.00;;;;;;;15.63;100.00;-17229.97;6243783;23;20157;-60
2023/06/07 02:27:42;;;;;;;7.40;5.47;;;;;;;15.59;100.00;-16267.72;6244023;23;20157;-61
2023/06/07 02:30:09;;;;;;;5.87;5.37;;;;;;;15.37;100.00;-15942.69;6243924;23;20187;-61
2023/06/07 02:32:38;;;;;;;9.37;5.83;;;;;;;15.63;100.00;-14986.19;6243782;23;20153;-61
2023/06/07 02:35:07;;;;;;;5.70;5.20;;;;;;;15.45;100.00;-12417.31;6244098;23;20227;-66
2023/06/07 02:37:33;;;;;;;10.17;6.30;;;;;;;15.27;100.00;-14658.94;6244054;23;20164;-62
2023/06/07 02:40:00;;;;;;;6.10;5.57;;;;;;;15.24;100.00;-15619.69;6243937;23;20153;-62
2023/06/07 02:42:27;;;;;;;10.50;5.80;;;;;;;15.40;100.00;-15302.47;6244056;23;20622;-61
2023/06/07 02:44:54;;;;;;;7.90;7.07;;;;;;;15.14;100.00;-16898.78;6243959;23;20167;-62
2023/06/07 02:47:21;;;;;;;7.03;6.30;;;;;;;15.05;100.00;-17217.06;6243823;23;20157;-61
2023/06/07 02:49:49;;;;;;;5.40;5.00;;;;;;;15.29;100.00;-17222.34;6243689;23;20184;-61
2023/06/07 02:52:16;;;;;;;7.73;6.10;;;;;;;15.36;100.00;-17544.19;6245613;23;20168;-62
2023/06/07 02:54:43;;;;;;;6.10;5.60;;;;;;;15.65;100.00;-17230.44;6246027;23;20567;-61
2023/06/07 02:57:10;;;;;;;6.13;5.70;;;;;;;15.68;100.00;-16590.13;6218949;23;20164;-61
2023/06/07 02:59:39;;;;;;;6.53;6.13;;;;;;;15.90;100.00;-15953.41;6246007;23;20153;-61
2023/06/07 03:02:06;;;;;;;9.47;6.93;;;;;;;15.86;100.00;-16593.88;6245543;23;20157;-62
2023/06/07 03:04:33;;;;;;;8.87;6.60;;;;;;;16.02;100.00;-16917.97;6245725;23;20620;-61
2023/06/07 03:07:02;;;;;;;7.50;6.60;;;;;;;16.15;100.00;-16920.72;6245370;23;20226;-61
2023/06/07 03:09:28;;;;;;;11.20;6.33;;;;;;;16.28;100.00;-16923.56;6245659;23;20165;-62
2023/06/07 03:11:55;;;;;;;15.47;6.20;;;;;;;16.51;100.00;-15965.72;6245347;23;20157;-61
2023/06/07 03:14:23;;;;;;;15.07;7.23;;;;;;;17.21;100.00;-13407.81;6245534;23;20157;-62
2023/06/07 03:16:50;;;;;;;7.63;6.60;;;;;;;18.09;100.00;-8909.78;6245650;23;20188;-62
2023/06/07 03:19:17;;;;;;;18.70;7.00;;;;;;;19.14;100.00;1435.25;6245812;23;20168;-61
2023/06/07 03:21:45;;;;;;;25.70;7.17;;;;;;;19.95;100.00;18358.97;6245645;23;20171;-62
2023/06/07 03:24:16;;;;;;;19.97;6.60;;;;;;;20.07;100.00;62367.13;6245377;23;20191;-62
2023/06/07 03:26:43;;;;;;;16.40;7.20;;;;;;;19.66;100.00;91514.22;6245399;23;20236;-61
2023/06/07 03:29:10;;;;;;;24.53;6.57;;;;;;;19.40;100.00;71222.34;6245757;23;20627;-62
2023/06/07 03:31:37;;;;;;;5.50;5.07;;;;;;;19.11;100.00;58307.47;6245360;23;20181;-62
2023/06/07 03:34:04;;;;;;;24.20;6.73;;;;;;;19.14;100.00;56991.63;6245269;23;20154;-61
2023/06/07 03:36:31;;;;;;;22.10;6.57;;;;;;;19.16;100.00;54029.56;6245765;23;20167;-62
2023/06/07 03:38:59;;;;;;;14.30;6.17;;;;;;;18.92;100.00;47431.16;6246006;23;20492;-65
2023/06/07 03:41:29;;;;;;;11.57;5.57;;;;;;;19.17;100.00;46137.25;6245543;23;20245;-62
2023/06/07 03:43:55;;;;;;;7.67;5.87;;;;;;;19.24;100.00;46471.00;6245108;23;20200;-62
2023/06/07 03:46:25;;;;;;;16.83;7.10;;;;;;;19.29;100.00;46146.91;6245363;23;20240;-64
2023/06/07 03:48:52;;;;;;;17.50;7.70;;;;;;;19.51;100.00;47479.56;6245078;23;20160;-62
2023/06/07 03:51:19;;;;;;;24.97;6.90;;;;;;;19.57;100.00;59013.06;6245520;23;20528;-62
2023/06/07 03:53:46;;;;;;;20.20;9.10;;;;;;;19.67;100.00;66290.47;6245113;23;20160;-62
2023/06/07 03:56:13;;;;;;;32.47;9.40;;;;;;;19.77;100.00;80221.28;6245104;23;20240;-63
2023/06/07 03:58:41;;;;;;;6.23;5.70;;;;;;;19.86;100.00;88547.41;6245354;23;20243;-63
2023/06/07 04:01:09;;;;;;;8.27;5.07;;;;;;;19.96;100.00;77922.56;6244917;23;20564;-64
2023/06/07 04:03:39;;;;;;;5.93;4.83;;;;;;;20.20;100.00;85600.84;6244433;23;20168;-63
2023/06/07 04:06:08;;;;;;;22.57;6.83;;;;;;;20.38;100.00;123791.97;6244902;23;20196;-63
2023/06/07 04:08:36;;;;;;;10.27;5.23;;;;;;;20.40;100.00;151165.38;6244816;23;20157;-62
2023/06/07 04:11:03;;;;;;;17.20;6.30;;;;;;;20.54;100.00;151199.78;6244786;23;20215;-62
2023/06/07 04:13:30;;;;;;;12.00;5.63;;;;;;;20.49;100.00;151189.59;6245180;23;20164;-62
2023/06/07 04:15:58;;;;;;;16.47;5.50;;;;;;;20.96;100.00;151308.00;6245317;23;20477;-63
2023/06/07 04:18:25;;;;;;;21.57;6.13;;;;;;;21.08;100.00;151337.34;6244804;23;20163;-62
2023/06/07 04:20:52;;;;;;;24.70;5.77;;;;;;;21.23;100.00;151375.59;6244930;23;20259;-62
2023/06/07 04:23:19;;;;;;;12.37;5.47;;;;;;;21.28;100.00;151388.34;6245367;23;20157;-63
2023/06/07 04:25:46;;;;;;;13.03;4.90;;;;;;;21.25;100.00;151380.72;6245198;23;20487;-63
2023/06/07 04:28:13;;;;;;;15.60;5.40;;;;;;;21.43;100.00;151426.56;6245906;23;20592;-62
2023/06/07 04:30:42;;;;;;;12.37;4.63;;;;;;;21.20;100.00;151366.69;6246086;23;20252;-62
2023/06/07 04:33:13;;;;;;;9.43;5.70;;;;;;;21.63;100.00;151475.00;6245413;23;20588;-62
2023/06/07 04:35:44;;;;;;;12.25;4.93;;;;;;;21.73;100.00;151501.75;6246237;23;20164;-63
2023/06/07 04:38:12;;;;;;;13.80;5.50;;;;;;;21.99;100.00;151566.81;6244771;23;20243;-63
2023/06/07 04:40:41;;;;;;;30.47;6.80;;;;;;;21.85;100.00;151531.09;6245450;23;20227;-61
2023/06/07 04:43:08;;;;;;;24.23;6.20;;;;;;;21.98;100.00;151563.03;6245131;23;20287;-62
2023/06/07 04:45:40;;;;;;;22.23;7.07;;;;;;;22.10;100.00;151594.91;6245013;23;20215;-62
2023/06/07 04:48:07;;;;;;;15.60;6.53;;;;;;;22.22;100.00;151624.22;6245255;23;20500;-62
2023/06/07 04:50:38;;;;;;;17.58;6.63;;;;;;;22.23;100.00;151626.78;6244555;23;20493;-62
2023/06/07 04:53:05;;;;;;;15.65;6.07;;;;;;;22.20;100.00;151620.38;6244811;23;20548;-62
2023/06/07 04:55:34;;;;;;;9.48;5.45;;;;;;;22.31;100.00;151647.16;6245570;23;20219;-61
2023/06/07 04:58:03;;;;;;;6.70;5.10;;;;;;;22.29;100.00;151643.31;6247734;23;20161;-62
2023/06/07 05:00:31;;;;;;;13.10;5.35;;;;;;;22.37;100.00;151662.44;6247819;23;20219;-62
2023/06/07 05:02:58;;;;;;;8.85;4.70;;;;;;;22.23;100.00;151626.78;6246813;23;20608;-63
2023/06/07 05:05:25;;;;;;;7.20;4.82;;;;;;;22.55;100.00;151708.38;6245649;23;20169;-62
2023/06/07 05:07:54;;;;;;;14.27;4.55;;;;;;;22.43;100.00;151676.47;6245305;23;20161;-61
2023/06/07 05:10:20;;;;;;;17.30;5.25;;;;;;;22.61;100.00;151723.69;6244749;23;20184;-61
2023/06/07 05:12:47;;;;;;;20.20;4.90;;;;;;;22.75;100.00;151758.13;6244470;23;20240;-62
2023/06/07 05:15:14;;;;;;;14.70;4.40;;;;;;;23.03;100.00;151828.31;6244432;23;20163;-61
2023/06/07 05:17:45;;;;;;;11.93;5.30;;;;;;;23.09;100.00;151843.59;6245118;23;20163;-59
2023/06/07 05:20:13;;;;;;;9.88;4.60;;;;;;;23.46;100.00;151936.84;6244520;23;20199;-60
2023/06/07 05:22:41;;;;;;;13.38;4.47;;;;;;;23.47;100.00;151940.63;6244449;23;20161;-59
2023/06/07 05:25:11;;;;;;;5.97;3.15;;;;;;;22.95;100.00;151807.91;6244789;23;20589;-60
2023/06/07 05:27:40;;;;;;;3.90;2.60;;;;;;;22.75;100.00;151759.41;6245364;23;20179;-59
2023/06/07 05:30:08;;;;;;;14.88;5.07;;;;;;;23.19;100.00;151870.41;6244535;23;20215;-59
2023/06/07 05:32:36;;;;;;;9.25;3.92;;;;;;;23.29;100.00;151893.41;6244357;23;20153;-59
2023/06/07 05:35:04;;;;;;;5.05;3.25;;;;;;;23.23;100.00;151880.63;6245102;23;20179;-60
2023/06/07 05:37:31;;;;;;;6.60;2.90;;;;;;;23.59;100.00;151971.25;6244342;23;20161;-59
2023/06/07 05:39:59;;;;;;;13.00;3.88;;;;;;;23.89;100.00;152045.31;6244520;23;20492;-59
2023/06/07 05:42:27;;;;;;;5.82;2.88;;;;;;;23.46;100.00;151936.84;6244287;23;20172;-59
2023/06/07 05:44:56;;;;;;;7.75;3.35;;;;;;;23.33;100.00;151903.59;6244855;23;20210;-59
2023/06/07 05:47:25;;;;;;;2.05;1.95;;;;;;;23.07;100.00;151839.81;6247556;23;20179;-60
2023/06/07 05:49:53;;;;;;;1.90;1.80;;;;;;;23.04;100.00;151830.88;6247254;23;20161;-60
2023/06/07 05:52:20;;;;;;;4.88;2.72;;;;;;;23.10;100.00;151846.16;6246602;23;20241;-60
2023/06/07 05:54:54;;;;;;;3.95;2.03;;;;;;;23.50;100.00;151947.03;6217967;23;20168;-60
2023/06/07 05:57:21;;;;;;;3.13;2.50;;;;;;;23.60;100.00;151972.53;6245679;23;20167;-60
2023/06/07 05:59:49;;;;;;;2.55;1.80;;;;;;;23.52;100.00;151953.41;6245937;23;20163;-59
2023/06/07 06:02:16;;;;;;;11.07;2.30;;;;;;;23.82;100.00;152027.41;6244864;23;20153;-58
2023/06/07 06:04:43;;;;;;;5.97;2.30;;;;;;;23.98;99.53;152069.53;6244670;23;20180;-58
2023/06/07 06:07:10;;;;;;;2.20;1.80;;;;;;;23.59;100.00;151971.25;6244843;23;20351;-58
2023/06/07 06:09:37;;;;;;;4.25;2.58;;;;;;;23.41;100.00;151925.28;6244192;23;20161;-58
2023/06/07 06:12:06;;;;;;;2.53;1.90;;;;;;;23.32;100.00;151901.03;6244646;23;20180;-59
2023/06/07 06:14:33;;;;;;;2.38;2.15;;;;;;;23.88;100.00;152044.03;6244417;23;20160;-58
2023/06/07 06:17:02;;;;;;;2.03;1.85;;;;;;;24.03;100.00;152082.31;6243781;23;20160;-59
2023/06/07 06:19:42;;;;;;;2.30;2.17;;;;;;;24.21;100.00;152125.78;6244364;23;20161;-58
2023/06/07 06:22:09;;;;;;;2.78;1.88;;;;;;;24.81;97.76;152277.75;6245863;23;20187;-61
2023/06/07 06:24:38;;;;;;;1.98;1.88;;;;;;;25.06;95.88;152340.38;6245362;23;20244;-63
2023/06/07 06:27:07;;;;;;;2.08;1.98;;;;;;;25.57;90.89;152469.47;6246309;23;20164;-63
2023/06/07 06:29:34;;;;;;;2.83;2.30;;;;;;;26.26;86.91;152645.94;6246506;23;20192;-63
2023/06/07 06:32:02;;;;;;;6.47;2.63;;;;;;;25.39;83.99;152424.69;6246313;23;20531;-62
2023/06/07 06:34:29;;;;;;;3.20;2.55;;;;;;;25.35;90.77;152414.47;6246625;23;20184;-62
2023/06/07 06:36:57;;;;;;;2.20;2.00;;;;;;;25.49;91.38;152450.28;6247773;23;20193;-63
2023/06/07 06:39:25;;;;;;;2.03;1.92;;;;;;;24.46;97.12;152189.63;6246182;23;20196;-63
2023/06/07 06:41:52;;;;;;;3.70;2.53;;;;;;;24.62;91.39;152230.47;6246180;23;20481;-63
2023/06/07 06:44:18;;;;;;;2.35;2.17;;;;;;;24.31;95.36;152152.63;6246089;23;20524;-62
2023/06/07 06:46:45;;;;;;;3.75;2.30;;;;;;;24.40;100.00;152174.31;6246591;23;20495;-62
2023/06/07 06:49:14;;;;;;;4.97;2.38;;;;;;;24.76;90.82;152266.25;6249457;23;20461;-62
2023/06/07 06:51:42;;;;;;;4.18;2.25;;;;;;;24.25;100.00;152136.00;6247665;23;20184;-63
2023/06/07 06:54:09;;;;;;;2.88;2.67;;;;;;;24.41;100.00;152176.84;6246922;23;20160;-63
2023/06/07 06:56:36;;;;;;;7.57;2.90;;;;;;;24.06;100.00;152089.97;6245378;23;20161;-63
2023/06/07 06:59:03;;;;;;;5.43;3.13;;;;;;;24.47;100.00;152192.19;6246415;23;20156;-63
2023/06/07 07:01:45;;;;;;;3.80;2.65;;;;;;;24.43;100.00;152181.97;6246812;23;20153;-62
2023/06/07 07:04:14;;;;;;;2.55;2.28;;;;;;;23.93;100.00;152055.53;6246911;23;20488;-61
2023/06/07 07:06:41;;;;;;;3.28;2.40;;;;;;;23.56;100.00;151963.63;6246367;23;20613;-61
2023/06/07 07:09:09;;;;;;;7.22;2.97;;;;;;;23.32;100.00;151901.03;6246753;23;20161;-63
2023/06/07 07:11:35;;;;;;;6.63;2.30;;;;;;;23.29;100.00;151893.41;6245649;23;20259;-63
2023/06/07 07:14:03;;;;;;;5.00;2.75;;;;;;;23.02;100.00;151825.75;6246208;23;20228;-62
2023/06/07 07:16:30;;;;;;;3.38;2.50;;;;;;;23.28;100.00;151892.13;6245885;23;20248;-62
2023/06/07 07:18:57;;;;;;;7.35;2.25;;;;;;;23.26;100.00;151887.00;6245772;23;20196;-62
2023/06/07 07:21:27;;;;;;;2.80;2.42;;;;;;;23.31;100.00;151898.47;6245589;23;20581;-63
2023/06/07 07:23:55;;;;;;;2.55;2.30;;;;;;;23.01;100.00;151824.47;6246091;23;20157;-64
2023/06/07 07:26:21;;;;;;;4.70;2.55;;;;;;;23.15;100.00;151860.22;6245691;23;20235;-63
2023/06/07 07:28:48;;;;;;;3.53;2.67;;;;;;;23.10;100.00;151846.16;6244786;23;20512;-63
2023/06/07 07:31:15;;;;;;;3.83;3.05;;;;;;;23.16;100.00;151861.50;6245840;23;20188;-62
2023/06/07 07:33:43;;;;;;;3.42;2.45;;;;;;;22.97;100.00;151813.00;6246234;23;20223;-63
2023/06/07 07:36:10;;;;;;;3.25;2.50;;;;;;;23.22;100.00;151878.06;6246946;23;20577;-62
2023/06/07 07:38:40;;;;;;;3.72;2.78;;;;;;;23.23;100.00;151879.34;6248091;23;20240;-61
2023/06/07 07:41:07;;;;;;;5.43;2.70;;;;;;;23.34;100.00;151906.16;6249534;23;20232;-64
2023/06/07 07:43:34;;;;;;;4.80;2.40;;;;;;;23.32;100.00;151902.31;6245702;23;20283;-64
2023/06/07 07:46:01;;;;;;;2.65;2.45;;;;;;;23.38;100.00;151917.59;6246419;23;20161;-64
2023/06/07 07:48:28;;;;;;;5.13;2.72;;;;;;;23.27;100.00;151888.28;6245079;23;20188;-64
2023/06/07 07:50:55;;;;;;;2.88;2.58;;;;;;;23.10;100.00;151846.16;6244834;23;20163;-62
2023/06/07 07:53:22;;;;;;;2.47;2.38;;;;;;;23.26;100.00;151885.72;6246579;23;20484;-63
2023/06/07 07:55:51;;;;;;;5.00;2.28;;;;;;;23.05;100.00;151834.69;6194913;23;20157;-63
2023/06/07 07:58:18;;;;;;;4.45;2.53;;;;;;;22.94;100.00;151806.63;6245477;23;20506;-64
2023/06/07 08:00:44;;;;;;;2.90;2.80;;;;;;;22.96;100.00;151810.44;6244779;23;20156;-63
2023/06/07 08:03:12;;;;;;;5.55;2.83;;;;;;;23.04;100.00;151830.88;6244330;23;20172;-63
2023/06/07 08:05:39;;;;;;;4.10;2.70;;;;;;;23.29;100.00;151893.41;6244156;23;20175;-62
2023/06/07 08:08:06;;;;;;;4.47;2.80;;;;;;;23.68;100.00;151992.94;6245343;23;20161;-62
2023/06/07 08:10:33;;;;;;;5.30;2.50;;;;;;;23.90;100.00;152049.13;6245303;23;20196;-62
2023/06/07 08:13:01;;;;;;;6.38;2.67;;;;;;;23.96;100.00;152063.19;6244935;23;20697;-62
2023/06/07 08:15:28;;;;;;;5.25;2.50;;;;;;;23.68;100.00;151992.94;6244854;23;20157;-62
2023/06/07 08:17:55;;;;;;;2.85;2.63;;;;;;;23.59;100.00;151970.03;6244200;23;20157;-63
2023/06/07 08:20:22;;;;;;;4.18;2.10;;;;;;;23.56;100.00;151962.31;6244594;23;20227;-63
2023/06/07 08:22:50;;;;;;;2.88;2.40;;;;;;;23.35;100.00;151909.97;6245296;23;20236;-62
2023/06/07 08:25:17;;;;;;;2.75;2.55;;;;;;;23.08;100.00;151841.09;6245636;23;20175;-62
2023/06/07 08:27:44;;;;;;;2.40;2.20;;;;;;;23.19;100.00;151870.41;6245428;23;20155;-63
2023/06/07 08:30:16;;;;;;;2.80;2.25;;;;;;;23.50;100.00;151947.03;6244995;23;20240;-63
2023/06/07 08:32:44;;;;;;;2.33;2.13;;;;;;;23.32;100.00;151901.03;6245014;23;20652;-62
2023/06/07 08:35:11;;;;;;;8.02;2.38;;;;;;;23.20;100.00;151873.00;6245297;23;20574;-61
2023/06/07 08:37:39;;;;;;;3.35;2.13;;;;;;;23.29;100.00;151893.41;6244866;23;20499;-62
2023/06/07 08:40:08;;;;;;;6.07;2.72;;;;;;;23.58;100.00;151967.47;6244814;23;20560;-64
2023/06/07 08:42:35;;;;;;;6.63;2.70;;;;;;;23.54;100.00;151958.53;6245867;23;20205;-63
2023/06/07 08:45:02;;;;;;;6.10;2.30;;;;;;;23.72;100.00;152003.16;6244925;23;20169;-63
2023/06/07 08:47:32;;;;;;;1.83;1.73;;;;;;;23.67;100.00;151990.44;6244201;23;20239;-63
2023/06/07 08:50:01;;;;;;;3.35;2.00;;;;;;;23.53;100.00;151954.69;6244419;23;20153;-62
2023/06/07 08:52:30;;;;;;;2.03;1.92;;;;;;;23.81;100.00;152026.13;6244629;23;20713;-62
2023/06/07 08:55:05;;;;;;;2.28;2.17;;;;;;;23.68;100.00;151994.22;6245268;23;20240;-63
2023/06/07 08:57:33;;;;;;;4.10;2.38;;;;;;;23.80;81.03;152022.34;6244262;23;20164;-64
2023/06/07 09:00:06;;;;;;;3.85;2.10;;;;;;;23.90;87.37;152049.13;6244791;23;20243;-63
2023/06/07 09:02:35;;;;;;;8.75;3.15;;;;;;;23.93;100.00;152055.53;6243877;23;20172;-63
2023/06/07 09:05:05;;;;;;;2.08;1.80;;;;;;;23.94;88.56;152059.34;6244993;23;20173;-63
2023/06/07 09:07:33;;;;;;;4.05;2.08;;;;;;;23.60;100.00;151973.81;6244339;23;20203;-64
2023/06/07 09:10:00;;;;;;;2.42;1.58;;;;;;;23.60;95.64;151973.81;6244267;23;20604;-62
2023/06/07 09:12:26;;;;;;;4.18;1.77;;;;;;;23.36;88.99;151911.25;6244376;23;20242;-62
2023/06/07 09:14:54;;;;;;;1.98;1.88;;;;;;;23.25;87.92;151884.47;6244502;23;20237;-62
2023/06/07 09:17:22;;;;;;;2.33;1.95;;;;;;;22.94;100.00;151805.34;6244759;23;20157;-62
2023/06/07 09:19:50;;;;;;;5.20;3.63;;;;;;;23.13;100.00;151855.09;6243920;23;20168;-62
2023/06/07 09:22:25;;;;;;;2.15;1.83;;;;;;;22.97;100.00;151814.28;6243545;23;20222;-62
2023/06/07 09:24:52;;;;;;;4.60;2.10;;;;;;;22.96;100.00;151811.72;6244577;23;20230;-63
2023/06/07 09:27:30;;;;;;;2.65;1.58;;;;;;;23.05;97.00;151834.69;6244372;23;20157;-62
2023/06/07 09:30:04;;;;;;;2.33;1.45;;;;;;;23.32;99.10;151901.03;6244176;23;20160;-63
2023/06/07 09:32:36;;;;;;;2.05;1.70;;;;;;;23.45;88.11;151934.28;6243337;23;20184;-61
2023/06/07 09:35:14;;;;;;;2.45;2.00;;;;;;;22.97;83.67;151813.00;6244596;23;20164;-63
2023/06/07 09:37:45;;;;;;;1.55;1.55;;;;;;;22.83;97.11;151778.53;6243959;23;20244;-62
2023/06/07 09:40:14;;;;;;;5.30;4.10;;;;;;;23.14;96.53;151856.38;6244708;23;20161;-63
2023/06/07 09:42:42;;;;;;;2.08;1.92;;;;;;;23.34;100.00;151906.16;6243767;23;20201;-63
2023/06/07 09:45:13;;;;;;;2.97;1.80;;;;;;;23.77;100.00;152014.66;6243875;23;20236;-62
2023/06/07 09:47:41;;;;;;;1.35;1.20;;;;;;;24.00;68.47;152073.41;6244245;23;20564;-63
2023/06/07 09:50:10;;;;;;;1.92;1.80;;;;;;;23.84;87.06;152033.84;6244218;23;20215;-63
2023/06/07 09:52:38;;;;;;;1.67;1.63;;;;;;;23.73;78.01;152005.72;6244416;23;20611;-63
2023/06/07 09:55:07;;;;;;;1.80;1.70;;;;;;;24.20;72.39;152123.22;6244115;23;20156;-62
2023/06/07 09:57:36;;;;;;;1.63;1.60;;;;;;;24.36;80.96;152164.06;6217799;23;20175;-62
2023/06/07 10:00:13;;;;;;;2.65;1.77;;;;;;;24.09;80.38;152096.38;6243892;23;20161;-62
2023/06/07 10:02:42;;;;;;;7.88;2.05;;;;;;;24.12;94.41;152105.31;6244002;23;20437;-62
2023/06/07 10:05:09;;;;;;;2.25;1.40;;;;;;;24.26;78.33;152139.84;6244775;23;20173;-62
2023/06/07 10:07:45;;;;;;;1.73;1.63;;;;;;;24.13;78.80;152107.88;6244225;23;20179;-63
2023/06/07 10:10:14;;;;;;;3.60;1.83;;;;;;;23.55;94.64;151961.03;6245350;23;20169;-63
2023/06/07 10:12:42;;;;;;;4.95;1.90;;;;;;;23.76;91.42;152013.41;6242918;23;20180;-63
2023/06/07 10:15:11;;;;;;;2.85;2.20;;;;;;;23.83;93.05;152031.28;6243707;23;20167;-63
2023/06/07 10:17:48;;;;;;;7.68;2.30;;;;;;;23.79;85.89;152019.78;6243915;23;20164;-63
2023/06/07 10:20:24;;;;;;;1.75;1.65;;;;;;;23.76;92.93;152012.13;6244306;23;20161;-63
2023/06/07 10:22:57;;;;;;;1.58;1.48;;;;;;;23.49;93.52;151945.75;6243892;23;20551;-62
2023/06/07 10:25:29;;;;;;;2.83;2.22;;;;;;;23.61;94.86;151975.09;6244280;23;20263;-63
2023/06/07 10:28:14;;;;;;;7.30;1.98;;;;;;;23.49;98.94;151944.47;6244512;23;20156;-61
2023/06/07 10:30:45;;;;;;;1.70;1.60;;;;;;;23.50;87.51;151947.03;6244333;23;20520;-61
2023/06/07 10:33:15;;;;;;;1.92;1.77;;;;;;;23.61;100.00;151976.38;6243356;23;20233;-63
2023/06/07 10:35:42;;;;;;;2.30;1.60;;;;;;;23.49;97.64;151945.75;6243641;23;20253;-62
2023/06/07 10:38:15;;;;;;;4.00;2.03;;;;;;;23.50;100.00;151947.03;6243781;23;20157;-60
2023/06/07 10:40:42;;;;;;;3.30;2.38;;;;;;;23.60;100.00;151972.53;6216401;23;20682;-58
2023/06/07 10:43:09;;;;;;;5.38;2.22;;;;;;;23.72;100.00;152003.16;6243208;23;20200;-59
2023/06/07 10:45:36;;;;;;;2.00;1.90;;;;;;;23.48;100.00;151943.19;6243637;23;20171;-58
2023/06/07 10:48:34;;;;;;;2.20;2.10;;;;;;;23.29;100.00;151893.41;6243377;23;20157;-58
2023/06/07 10:51:02;;;;;;;3.30;2.00;;;;;;;23.34;100.00;151906.16;6243462;23;20169;-59
2023/06/07 10:53:56;;;;;;;2.08;1.98;;;;;;;23.15;100.00;151860.22;6243669;23;20180;-59
2023/06/07 10:56:33;;;;;;;1.92;1.83;;;;;;;22.36;100.00;151658.66;6243438;23;20195;-58
2023/06/07 10:59:21;;;;;;;4.32;2.47;;;;;;;22.81;100.00;151772.19;6243671;23;20183;-58
2023/06/07 11:01:52;;;;;;;5.78;2.10;;;;;;;22.56;100.00;151709.66;6243529;23;20184;-58
2023/06/07 11:04:51;;;;;;;3.30;2.15;;;;;;;22.66;100.00;151735.16;6243876;23;20453;-58
2023/06/07 11:07:22;;;;;;;4.65;2.00;;;;;;;22.54;100.00;151705.81;6243275;23;20157;-57
2023/06/07 11:09:51;;;;;;;2.00;1.90;;;;;;;22.37;100.00;151661.16;6243521;23;20171;-58
2023/06/07 11:12:54;;;;;;;2.28;1.83;;;;;;;22.45;100.00;151681.59;6245034;23;20654;-58
2023/06/07 11:15:25;;;;;;;4.85;2.28;;;;;;;22.17;100.00;151611.44;6245010;23;20168;-59
2023/06/07 11:17:53;;;;;;;2.75;1.85;;;;;;;22.22;100.00;151625.50;6245416;23;20564;-58
2023/06/07 11:20:53;;;;;;;2.90;2.30;;;;;;;22.26;100.00;151635.69;6245506;23;20236;-58
2023/06/07 11:23:28;;;;;;;4.68;2.45;;;;;;;22.25;100.00;151633.13;6123176;23;20189;-58
2023/06/07 11:26:00;;;;;;;1.95;1.85;;;;;;;22.28;100.00;151640.75;6226153;23;20176;-59